Flight Track Log - Related Links

Times and Time Zones

All times are in EDT time to prevent confusion due to time zone crossing. See the AWE1940 flight status page for this flight to view local times or setup timezone preferences in your user account.

Time Position Orientation Groundspeed Altitude Reporting Facility
EDT Latitude Longitude Course Direction KTS MPH feet Rate Location/Type
Tue 07:13:26 PM 29.9178 -95.2767 90° East 218 251 3,400  Level Houston Center
Tue 07:14:12 PM 29.8889 -95.2344 128° Southeast 225 259 4,900 2,333 Climbing Houston Center
Tue 07:15:00 PM 29.9834 -94.8267 90° East  Level FlightAware Approximate
Tue 07:15:14 PM 29.8544 -95.1564 117° Southeast 275 316 7,600  Level Houston Center
Tue 07:16:00 PM 29.9834 -94.7001 90° East  Level FlightAware Approximate
Tue 07:16:16 PM 29.8597 -95.0647 86° East 287 330 10,200  Level Houston Center
Tue 07:17:00 PM 29.9833 -94.5734 90° East  Level FlightAware Approximate
Tue 07:17:18 PM 29.8806 -94.9617 77° East 329 379 11,500  Level Houston Center
Tue 07:18:00 PM 29.9834 -94.4437 90° East  Level FlightAware Approximate
Tue 07:18:20 PM 29.9028 -94.8478 77° East 360 414 14,300  Level Houston Center
Tue 07:19:22 PM 29.9222 -94.7300 79° East 372 428 16,300 2,129 Climbing Houston Center
Tue 07:20:24 PM 29.9486 -94.5839 78° East 386 444 18,700 1,854 Climbing Houston Center
Tue 07:21:25 PM 29.9697 -94.4711 78° East 395 455 20,100 1,366 Climbing Houston Center
Tue 07:22:27 PM 29.9922 -94.3406 79° East 413 475 21,500 1,645 Climbing Houston Center
Tue 07:23:29 PM 30.0158 -94.1769 80° East 431 496 23,500 1,645 Climbing Houston Center
Tue 07:24:31 PM 30.0297 -94.0367 83° East 440 506 24,900 1,355 Climbing Houston Center
Tue 07:25:33 PM 30.0486 -93.8928 81° East 453 521 26,300 1,210 Climbing Houston Center
Tue 07:26:35 PM 30.0661 -93.7483 82° East 459 528 27,400 1,306 Climbing Houston Center
Tue 07:27:37 PM 30.0831 -93.6017 82° East 465 535 29,000 1,645 Climbing Houston Center
Tue 07:28:39 PM 30.1036 -93.4300 82° East 459 528 30,800 1,452 Climbing Houston Center
Tue 07:29:41 PM 30.1197 -93.2881 82° East 455 524 32,000 1,065 Climbing Houston Center
Tue 07:30:43 PM 30.1369 -93.1483 82° East 446 513 33,000 823 Climbing Houston Center
Tue 07:31:45 PM 30.1853 -93.0236 66° East 433 498 33,700 677 Climbing Houston Center
Tue 07:32:47 PM 30.2497 -92.9103 57° Northeast 426 490 34,400 629 Climbing Houston Center
Tue 07:33:49 PM 30.3256 -92.7697 58° Northeast 430 495 35,000 290 Climbing Houston Center
Tue 07:34:51 PM 30.3883 -92.6533 58° Northeast 429 494 35,000  Level Houston Center
Tue 07:35:53 PM 30.4522 -92.5369 57° Northeast 430 495 35,000  Level Houston Center
Tue 07:36:55 PM 30.5181 -92.4122 58° Northeast 428 493 35,000  Level Houston Center
Tue 07:37:57 PM 30.5800 -92.2958 58° Northeast 428 493 35,000  Level Houston Center
Tue 07:38:58 PM 30.6433 -92.1794 58° Northeast 429 494 35,000 49 Level Houston Center
Tue 07:40:00 PM 30.7056 -92.0619 58° Northeast 430 495 35,100  Climbing Houston Center
Tue 07:41:02 PM 30.7797 -91.9203 59° Northeast 432 497 35,000 -48 Descending Houston Center
Tue 07:42:04 PM 30.8417 -91.8019 59° Northeast 431 496 35,000  Level Houston Center
Tue 07:43:06 PM 30.9047 -91.6844 58° Northeast 432 497 35,000  Level Houston Center
Tue 07:44:08 PM 30.9661 -91.5653 59° Northeast 432 497 35,000  Level Houston Center
Tue 07:45:09 PM 31.0267 -91.4450 60° Northeast 433 498 35,000  Level Houston Center
Tue 07:46:11 PM 31.0997 -91.3133 57° Northeast 438 504 35,000  Level Houston Center
Tue 07:47:13 PM 31.1664 -91.1939 57° Northeast 439 505 35,000  Level Houston Center
Tue 07:48:15 PM 31.2297 -91.0728 59° Northeast 440 506 35,000  Level Houston Center
Tue 07:49:17 PM 31.2947 -90.9492 58° Northeast 443 510 35,000  Level Houston Center
Tue 07:50:19 PM 31.3606 -90.8261 58° Northeast 445 512 35,000  Level Houston Center
Tue 07:51:21 PM 31.4381 -90.6794 58° Northeast 442 509 35,000  Level Houston Center
Tue 07:52:23 PM 31.5019 -90.5564 59° Northeast 441 507 35,000  Level Houston Center
Tue 07:53:25 PM 31.5664 -90.4336 58° Northeast 442 509 35,000  Level Houston Center
Tue 07:54:27 PM 31.6269 -90.3119 60° Northeast 435 501 35,000  Level Houston Center
Tue 07:55:29 PM 31.6881 -90.1906 59° Northeast 432 497 35,000 -387 Level Houston Center
Tue 07:56:31 PM 31.7519 -90.0675 59° Northeast 438 504 34,200 -871 Descending Houston Center
Tue 07:57:33 PM 31.8153 -89.9433 59° Northeast 441 507 33,200 -550 Descending Houston Center
Tue 07:58:31 PM 31.8878 -89.7947 60° Northeast 433 498 33,100 -51 Descending Memphis Center
Tue 07:59:31 PM 31.9519 -89.6694 59° Northeast 438 504 33,100 -50 Level Memphis Center
Tue 08:00:31 PM 32.0056 -89.5564 61° Northeast 438 504 33,000 -50 Descending Memphis Center
Tue 08:01:31 PM 32.0692 -89.4306 59° Northeast 438 504 33,000 50 Level Memphis Center
Tue 08:02:31 PM 32.1308 -89.3050 60° Northeast 444 511 33,100  Climbing Memphis Center
Tue 08:03:31 PM 32.1925 -89.1789 60° Northeast 444 511 33,000  Descending Memphis Center
Tue 08:04:31 PM 32.2517 -89.0553 60° Northeast 438 504 33,100  Climbing Memphis Center
Tue 08:05:31 PM 32.3131 -88.9292 60° Northeast 438 504 33,000  Descending Memphis Center
Tue 08:06:31 PM 32.3742 -88.8003 61° Northeast 438 504 33,100 50 Climbing Memphis Center
Tue 08:07:31 PM 32.4350 -88.6736 60° Northeast 438 504 33,100  Level Memphis Center
Tue 08:08:31 PM 32.4958 -88.5444 61° Northeast 438 504 33,100 -28 Level Memphis Center
Tue 08:11:06 PM 32.6575 -88.2008 61° Northeast 441 507 33,000 -28 Descending Atlanta Center
Tue 08:12:06 PM 32.7131 -88.0925 59° Northeast 441 507 33,000 50 Level Atlanta Center
Tue 08:13:06 PM 32.7739 -87.9544 62° Northeast 447 514 33,100 50 Climbing Atlanta Center
Tue 08:14:06 PM 32.8322 -87.8236 62° Northeast 447 514 33,100 -50 Level Atlanta Center
Tue 08:15:06 PM 32.8969 -87.6928 59° Northeast 447 514 33,000  Descending Atlanta Center
Tue 08:16:06 PM 32.9592 -87.5617 60° Northeast 447 514 33,100  Climbing Atlanta Center
Tue 08:17:06 PM 33.0194 -87.4181 63° Northeast 447 514 33,000  Descending Atlanta Center
Tue 08:18:06 PM 33.0772 -87.2864 62° Northeast 447 514 33,100 50 Climbing Atlanta Center
Tue 08:19:06 PM 33.1369 -87.1544 62° Northeast 447 514 33,100  Level Atlanta Center
Tue 08:20:06 PM 33.2006 -87.0303 58° Northeast 452 520 33,100 -50 Level Atlanta Center
Tue 08:21:06 PM 33.2433 -86.9000 69° East 446 513 33,000 -50 Descending Atlanta Center
Tue 08:22:06 PM 33.2697 -86.7494 78° East 446 513 33,000 50 Level Atlanta Center
Tue 08:23:06 PM 33.2939 -86.5986 79° East 445 512 33,100 50 Climbing Atlanta Center
Tue 08:24:06 PM 33.3158 -86.4353 81° East 459 528 33,100  Level Atlanta Center
Tue 08:25:06 PM 33.3414 -86.3042 77° East 454 522 33,100  Level Atlanta Center
Tue 08:26:06 PM 33.3669 -86.1531 79° East 454 522 33,100  Level Atlanta Center
Tue 08:27:06 PM 33.3906 -85.9994 80° East 454 522 33,100  Level Atlanta Center
Tue 08:28:06 PM 33.4136 -85.8506 79° East 454 522 33,100  Level Atlanta Center
Tue 08:29:06 PM 33.4431 -85.6919 77° East 448 516 33,100  Level Atlanta Center
Tue 08:30:06 PM 33.4636 -85.5403 81° East 448 516 33,100  Level Atlanta Center
Tue 08:31:06 PM 33.4861 -85.3939 80° East 453 521 33,100  Level Atlanta Center
Tue 08:32:06 PM 33.5086 -85.2447 80° East 448 516 33,100 -50 Level Atlanta Center
Tue 08:33:06 PM 33.5331 -85.0981 79° East 448 516 33,000  Descending Atlanta Center
Tue 08:34:06 PM 33.5531 -84.9511 81° East 448 516 33,100  Climbing Atlanta Center
Tue 08:35:06 PM 33.5808 -84.8217 76° East 443 510 33,000 -150 Descending Atlanta Center
Tue 08:36:06 PM 33.6236 -84.6600 72° East 443 510 32,800 -450 Descending Atlanta Center
Tue 08:37:06 PM 33.6533 -84.5453 73° East 449 517 32,100 -900 Descending Atlanta Center
Tue 08:38:06 PM 33.7000 -84.3758 72° East 449 517 31,000 -500 Descending Atlanta Center
Tue 08:39:06 PM 33.7397 -84.2286 72° East 449 517 31,100 -350 Climbing Atlanta Center
Tue 08:40:06 PM 33.8006 -84.1064 59° Northeast 456 525 30,300 -900 Descending Atlanta Center
Tue 08:41:06 PM 33.8672 -83.9689 60° Northeast 469 540 29,300 -600 Descending Atlanta Center
Tue 08:42:06 PM 33.9339 -83.8333 59° Northeast 475 547 29,100 -150 Descending Atlanta Center
Tue 08:43:06 PM 34.0025 -83.7031 58° Northeast 465 535 29,000  Descending Atlanta Center
Tue 08:44:06 PM 34.0708 -83.5672 59° Northeast 465 535 29,100  Climbing Atlanta Center
Tue 08:45:06 PM 34.1286 -83.4264 64° Northeast 465 535 29,000 -550 Descending Atlanta Center
Tue 08:46:06 PM 34.1864 -83.2856 64° Northeast 465 535 28,000 -950 Descending Atlanta Center
Tue 08:47:06 PM 34.2481 -83.1467 62° Northeast 467 537 27,100 -450 Descending Atlanta Center
Tue 08:48:06 PM 34.3094 -82.9950 64° Northeast 467 537 27,100 -50 Level Atlanta Center
Tue 08:49:06 PM 34.3583 -82.8536 67° East 456 525 27,000 -550 Descending Atlanta Center
Tue 08:50:06 PM 34.4028 -82.7169 68° East 443 510 26,000 -1,050 Descending Atlanta Center
Tue 08:51:06 PM 34.4328 -82.6083 71° East 434 499 24,900 -1,000 Descending Atlanta Center
Tue 08:52:06 PM 34.4772 -82.4664 69° East 394 453 24,000 -450 Descending Atlanta Center
Tue 08:53:06 PM 34.5108 -82.3447 71° East 380 437 24,000 -700 Level Atlanta Center
Tue 08:54:06 PM 34.5553 -82.2328 64° Northeast 375 432 22,600 -1,550 Descending Atlanta Center
Tue 08:55:06 PM 34.6467 -82.1956 19° North 320 368 20,900 -1,700 Descending Atlanta Center
Tue 08:56:06 PM 34.7319 -82.1911 North 313 360 19,200 -1,600 Descending Atlanta Center
Tue 08:57:06 PM 34.7786 -82.0992 58° Northeast 304 350 17,700 -1,500 Descending Atlanta Center
Tue 08:58:06 PM 34.7725 -81.9881 94° East 281 323 16,200 -1,400 Descending Atlanta Center
Tue 08:59:06 PM 34.7603 -81.8719 97° East 289 333 14,900 -1,200 Descending Atlanta Center
Tue 09:00:06 PM 34.7500 -81.7661 97° East 310 357 13,800 -1,100 Descending Atlanta Center
Tue 09:01:06 PM 34.7439 -81.6625 94° East 310 357 12,700 -900 Descending Atlanta Center
Tue 09:02:06 PM 34.7356 -81.5667 96° East 300 345 12,000 -350 Descending Atlanta Center
Tue 09:03:06 PM 34.7819 -81.4819 56° Northeast 276 318 12,000 -300 Level Atlanta Center
Tue 09:04:06 PM 34.8408 -81.4092 45° Northeast 288 331 11,400 -850 Descending Atlanta Center
Tue 09:05:06 PM 34.8933 -81.3317 50° Northeast 297 342 10,300 -1,150 Descending Atlanta Center
Tue 09:06:06 PM 34.9503 -81.2614 45° Northeast 286 329 9,100 -867 Descending Atlanta Center
Tue 09:06:36 PM 34.9786 -81.2250 46° Northeast 286 329 9,000 -100 Descending Atlanta Center
Tue 09:07:06 PM 35.0011 -81.1989 44° Northeast 281 323 9,000  Level Atlanta Center
Tue 09:07:37 PM 35.0333 -81.1547 48° Northeast 285 328 9,000  Level Atlanta Center
Tue 09:08:38 PM 35.0881 -81.0817 48° Northeast 288 331 9,000  Level Atlanta Center
Tue 09:09:38 PM 35.1669 -81.0636 11° North 285 328 9,000 -446 Level Atlanta Center
Tue 09:10:39 PM 35.2372 -81.0381 17° North 287 330 8,100 -836 Descending Atlanta Center
Tue 09:11:40 PM 35.2897 -80.9675 48° Northeast 261 300 7,300 -738 Descending Atlanta Center
Tue 09:12:41 PM 35.3319 -80.9100 48° Northeast 211 243 6,600 -984 Descending Atlanta Center
Tue 09:13:42 PM 35.3744 -80.8550 47° Northeast 212 244 5,300 -1,033 Descending Atlanta Center
Tue 09:14:43 PM 35.4106 -80.8000 51° Northeast 213 245 4,500 -639 Descending Atlanta Center
Tue 09:15:44 PM 35.4278 -80.7433 70° East 209 241 4,000 -246 Descending Atlanta Center
Tue 09:16:45 PM 35.3781 -80.7528 189° South 192 221 4,000  Level Atlanta Center

Login

Don't have an account? Register now (free) for customized features, flight alerts, and more!